sensor_id;sensor_type;location;lat;lon;timestamp;P1;durP1;ratioP1;P2;durP2;ratioP2
54037;SDS011;39954;48.844;9.726;2023-02-15T00:00:49;190.20;;;30.48;;
54037;SDS011;39954;48.844;9.726;2023-02-15T00:01:51;190.98;;;31.92;;
54037;SDS011;39954;48.844;9.726;2023-02-15T00:02:56;188.98;;;31.23;;
54037;SDS011;39954;48.844;9.726;2023-02-15T00:03:59;195.50;;;31.77;;
54037;SDS011;39954;48.844;9.726;2023-02-15T00:05:04;194.27;;;31.48;;
54037;SDS011;39954;48.844;9.726;2023-02-15T00:06:06;123.70;;;24.90;;
54037;SDS011;39954;48.844;9.726;2023-02-15T00:07:14;176.77;;;30.70;;
54037;SDS011;39954;48.844;9.726;2023-02-15T00:08:20;183.73;;;32.70;;
54037;SDS011;39954;48.844;9.726;2023-02-15T00:09:25;206.95;;;33.95;;
54037;SDS011;39954;48.844;9.726;2023-02-15T00:10:27;192.23;;;34.42;;
54037;SDS011;39954;48.844;9.726;2023-02-15T00:11:32;208.80;;;35.58;;
54037;SDS011;39954;48.844;9.726;2023-02-15T00:12:52;192.00;;;33.05;;
54037;SDS011;39954;48.844;9.726;2023-02-15T00:13:57;186.77;;;33.53;;
54037;SDS011;39954;48.844;9.726;2023-02-15T00:14:59;182.25;;;33.40;;
54037;SDS011;39954;48.844;9.726;2023-02-15T00:16:05;156.48;;;30.77;;
54037;SDS011;39954;48.844;9.726;2023-02-15T00:17:09;156.45;;;30.52;;
54037;SDS011;39954;48.844;9.726;2023-02-15T00:18:13;194.35;;;34.47;;
54037;SDS011;39954;48.844;9.726;2023-02-15T00:19:16;167.43;;;33.90;;
54037;SDS011;39954;48.844;9.726;2023-02-15T00:20:22;198.15;;;37.05;;
54037;SDS011;39954;48.844;9.726;2023-02-15T00:21:24;202.07;;;38.08;;
54037;SDS011;39954;48.844;9.726;2023-02-15T00:22:31;186.40;;;36.15;;
54037;SDS011;39954;48.844;9.726;2023-02-15T00:23:36;185.98;;;35.67;;
54037;SDS011;39954;48.844;9.726;2023-02-15T00:24:38;182.93;;;35.60;;
54037;SDS011;39954;48.844;9.726;2023-02-15T00:25:42;164.65;;;33.40;;
54037;SDS011;39954;48.844;9.726;2023-02-15T00:26:45;191.55;;;35.85;;
54037;SDS011;39954;48.844;9.726;2023-02-15T00:27:50;169.02;;;34.03;;
54037;SDS011;39954;48.844;9.726;2023-02-15T00:28:52;89.82;;;25.45;;
54037;SDS011;39954;48.844;9.726;2023-02-15T00:29:57;191.40;;;37.22;;
54037;SDS011;39954;48.844;9.726;2023-02-15T00:31:03;219.63;;;43.15;;
54037;SDS011;39954;48.844;9.726;2023-02-15T00:32:08;193.38;;;39.95;;
54037;SDS011;39954;48.844;9.726;2023-02-15T00:33:10;210.57;;;40.90;;
54037;SDS011;39954;48.844;9.726;2023-02-15T00:34:16;183.27;;;38.60;;
54037;SDS011;39954;48.844;9.726;2023-02-15T00:35:19;197.48;;;40.10;;
54037;SDS011;39954;48.844;9.726;2023-02-15T00:36:23;205.35;;;40.80;;
54037;SDS011;39954;48.844;9.726;2023-02-15T00:37:25;255.50;;;45.90;;
54037;SDS011;39954;48.844;9.726;2023-02-15T00:38:33;170.93;;;35.70;;
54037;SDS011;39954;48.844;9.726;2023-02-15T00:39:35;212.43;;;40.33;;
54037;SDS011;39954;48.844;9.726;2023-02-15T00:40:40;210.30;;;40.00;;
54037;SDS011;39954;48.844;9.726;2023-02-15T00:41:42;232.48;;;41.33;;
54037;SDS011;39954;48.844;9.726;2023-02-15T00:42:47;198.32;;;37.13;;
54037;SDS011;39954;48.844;9.726;2023-02-15T00:43:49;206.13;;;38.67;;
54037;SDS011;39954;48.844;9.726;2023-02-15T00:44:53;130.23;;;27.98;;
54037;SDS011;39954;48.844;9.726;2023-02-15T00:45:55;213.02;;;38.53;;
54037;SDS011;39954;48.844;9.726;2023-02-15T00:47:01;139.98;;;28.77;;
54037;SDS011;39954;48.844;9.726;2023-02-15T00:48:03;185.55;;;34.17;;
54037;SDS011;39954;48.844;9.726;2023-02-15T00:49:07;205.93;;;35.13;;
54037;SDS011;39954;48.844;9.726;2023-02-15T00:50:10;201.40;;;35.17;;
54037;SDS011;39954;48.844;9.726;2023-02-15T00:51:14;193.93;;;33.08;;
54037;SDS011;39954;48.844;9.726;2023-02-15T00:52:17;211.77;;;33.97;;
54037;SDS011;39954;48.844;9.726;2023-02-15T00:53:21;227.23;;;35.60;;
54037;SDS011;39954;48.844;9.726;2023-02-15T00:54:26;199.75;;;33.25;;
54037;SDS011;39954;48.844;9.726;2023-02-15T00:55:31;146.77;;;27.90;;
54037;SDS011;39954;48.844;9.726;2023-02-15T00:56:33;212.93;;;34.47;;
54037;SDS011;39954;48.844;9.726;2023-02-15T00:57:38;186.18;;;32.10;;
54037;SDS011;39954;48.844;9.726;2023-02-15T00:58:40;210.85;;;34.92;;
54037;SDS011;39954;48.844;9.726;2023-02-15T00:59:44;191.88;;;32.03;;
54037;SDS011;39954;48.844;9.726;2023-02-15T01:00:49;153.68;;;27.55;;
54037;SDS011;39954;48.844;9.726;2023-02-15T01:01:52;159.18;;;28.38;;
54037;SDS011;39954;48.844;9.726;2023-02-15T01:02:57;118.95;;;24.98;;
54037;SDS011;39954;48.844;9.726;2023-02-15T01:03:59;166.57;;;29.33;;
54037;SDS011;39954;48.844;9.726;2023-02-15T01:05:04;168.38;;;30.30;;
54037;SDS011;39954;48.844;9.726;2023-02-15T01:06:07;184.35;;;31.38;;
54037;SDS011;39954;48.844;9.726;2023-02-15T01:07:12;156.13;;;29.38;;
54037;SDS011;39954;48.844;9.726;2023-02-15T01:08:14;167.82;;;29.92;;
54037;SDS011;39954;48.844;9.726;2023-02-15T01:09:19;184.73;;;31.33;;
54037;SDS011;39954;48.844;9.726;2023-02-15T01:10:23;161.02;;;27.23;;
54037;SDS011;39954;48.844;9.726;2023-02-15T01:11:28;206.77;;;32.92;;
54037;SDS011;39954;48.844;9.726;2023-02-15T01:12:30;211.93;;;33.65;;
54037;SDS011;39954;48.844;9.726;2023-02-15T01:13:35;183.50;;;31.02;;
54037;SDS011;39954;48.844;9.726;2023-02-15T01:14:36;198.48;;;31.80;;
54037;SDS011;39954;48.844;9.726;2023-02-15T01:15:41;184.95;;;31.50;;
54037;SDS011;39954;48.844;9.726;2023-02-15T01:16:44;175.85;;;29.65;;
54037;SDS011;39954;48.844;9.726;2023-02-15T01:17:48;180.20;;;30.63;;
54037;SDS011;39954;48.844;9.726;2023-02-15T01:18:53;180.07;;;30.15;;
54037;SDS011;39954;48.844;9.726;2023-02-15T01:19:59;155.40;;;27.98;;
54037;SDS011;39954;48.844;9.726;2023-02-15T01:21:08;170.20;;;29.92;;
54037;SDS011;39954;48.844;9.726;2023-02-15T01:22:15;173.05;;;30.73;;
54037;SDS011;39954;48.844;9.726;2023-02-15T01:23:17;184.57;;;31.27;;
54037;SDS011;39954;48.844;9.726;2023-02-15T01:24:21;133.70;;;25.98;;
54037;SDS011;39954;48.844;9.726;2023-02-15T01:25:26;190.93;;;32.65;;
54037;SDS011;39954;48.844;9.726;2023-02-15T01:26:31;196.82;;;32.90;;
54037;SDS011;39954;48.844;9.726;2023-02-15T01:27:33;179.35;;;31.15;;
54037;SDS011;39954;48.844;9.726;2023-02-15T01:28:38;209.20;;;33.35;;
54037;SDS011;39954;48.844;9.726;2023-02-15T01:29:40;225.35;;;35.47;;
54037;SDS011;39954;48.844;9.726;2023-02-15T01:30:44;197.90;;;31.77;;
54037;SDS011;39954;48.844;9.726;2023-02-15T01:31:46;216.15;;;34.38;;
54037;SDS011;39954;48.844;9.726;2023-02-15T01:32:51;154.13;;;28.48;;
54037;SDS011;39954;48.844;9.726;2023-02-15T01:33:53;118.70;;;25.42;;
54037;SDS011;39954;48.844;9.726;2023-02-15T01:34:58;242.13;;;39.05;;
54037;SDS011;39954;48.844;9.726;2023-02-15T01:36:00;202.82;;;36.25;;
54037;SDS011;39954;48.844;9.726;2023-02-15T01:37:05;154.18;;;31.88;;
54037;SDS011;39954;48.844;9.726;2023-02-15T01:38:07;171.15;;;32.90;;
54037;SDS011;39954;48.844;9.726;2023-02-15T01:39:12;185.85;;;34.17;;
54037;SDS011;39954;48.844;9.726;2023-02-15T01:40:15;181.30;;;34.08;;
54037;SDS011;39954;48.844;9.726;2023-02-15T01:41:23;141.25;;;29.50;;
54037;SDS011;39954;48.844;9.726;2023-02-15T01:42:26;178.43;;;34.00;;
54037;SDS011;39954;48.844;9.726;2023-02-15T01:43:38;177.23;;;34.05;;
54037;SDS011;39954;48.844;9.726;2023-02-15T01:44:46;144.07;;;29.70;;
54037;SDS011;39954;48.844;9.726;2023-02-15T01:45:52;173.13;;;33.10;;
54037;SDS011;39954;48.844;9.726;2023-02-15T01:46:55;205.80;;;39.17;;
54037;SDS011;39954;48.844;9.726;2023-02-15T01:48:01;164.60;;;33.47;;
54037;SDS011;39954;48.844;9.726;2023-02-15T01:49:08;170.23;;;33.47;;
54037;SDS011;39954;48.844;9.726;2023-02-15T01:50:17;124.82;;;28.58;;
54037;SDS011;39954;48.844;9.726;2023-02-15T01:51:24;172.48;;;36.00;;
54037;SDS011;39954;48.844;9.726;2023-02-15T01:52:34;194.65;;;37.30;;
54037;SDS011;39954;48.844;9.726;2023-02-15T01:53:39;183.27;;;35.30;;
54037;SDS011;39954;48.844;9.726;2023-02-15T01:54:48;186.55;;;37.70;;
54037;SDS011;39954;48.844;9.726;2023-02-15T01:55:53;142.55;;;32.30;;
54037;SDS011;39954;48.844;9.726;2023-02-15T01:57:04;177.85;;;35.33;;
54037;SDS011;39954;48.844;9.726;2023-02-15T01:58:10;176.35;;;35.10;;
54037;SDS011;39954;48.844;9.726;2023-02-15T01:59:16;174.68;;;34.85;;
54037;SDS011;39954;48.844;9.726;2023-02-15T02:00:21;168.20;;;33.83;;
54037;SDS011;39954;48.844;9.726;2023-02-15T02:01:27;156.43;;;33.60;;
54037;SDS011;39954;48.844;9.726;2023-02-15T02:02:29;189.45;;;38.70;;
54037;SDS011;39954;48.844;9.726;2023-02-15T02:03:36;189.40;;;37.42;;
54037;SDS011;39954;48.844;9.726;2023-02-15T02:04:46;210.40;;;39.88;;
54037;SDS011;39954;48.844;9.726;2023-02-15T02:05:52;173.55;;;35.45;;
54037;SDS011;39954;48.844;9.726;2023-02-15T02:06:54;157.18;;;33.45;;
54037;SDS011;39954;48.844;9.726;2023-02-15T02:08:01;149.40;;;31.08;;
54037;SDS011;39954;48.844;9.726;2023-02-15T02:09:04;161.38;;;33.45;;
54037;SDS011;39954;48.844;9.726;2023-02-15T02:10:10;163.63;;;32.90;;
54037;SDS011;39954;48.844;9.726;2023-02-15T02:11:13;188.82;;;36.67;;
54037;SDS011;39954;48.844;9.726;2023-02-15T02:12:21;134.10;;;31.00;;
54037;SDS011;39954;48.844;9.726;2023-02-15T02:13:25;167.95;;;33.78;;
54037;SDS011;39954;48.844;9.726;2023-02-15T02:14:29;155.90;;;33.08;;
54037;SDS011;39954;48.844;9.726;2023-02-15T02:15:33;198.20;;;37.20;;
54037;SDS011;39954;48.844;9.726;2023-02-15T02:16:49;243.00;;;40.90;;
54037;SDS011;39954;48.844;9.726;2023-02-15T02:18:02;199.35;;;35.88;;
54037;SDS011;39954;48.844;9.726;2023-02-15T02:19:28;190.13;;;34.88;;
54037;SDS011;39954;48.844;9.726;2023-02-15T02:20:52;140.23;;;28.38;;
54037;SDS011;39954;48.844;9.726;2023-02-15T02:23:51;196.00;;;33.47;;
54037;SDS011;39954;48.844;9.726;2023-02-15T02:25:18;159.40;;;30.02;;
54037;SDS011;39954;48.844;9.726;2023-02-15T02:28:18;199.13;;;32.85;;
54037;SDS011;39954;48.844;9.726;2023-02-15T02:29:51;180.65;;;31.45;;
54037;SDS011;39954;48.844;9.726;2023-02-15T02:31:23;197.07;;;33.22;;
54037;SDS011;39954;48.844;9.726;2023-02-15T02:34:29;219.98;;;32.30;;
54037;SDS011;39954;48.844;9.726;2023-02-15T02:35:38;264.20;;;36.30;;
54037;SDS011;39954;48.844;9.726;2023-02-15T02:38:00;181.10;;;28.65;;
54037;SDS011;39954;48.844;9.726;2023-02-15T02:39:12;227.63;;;33.50;;
54037;SDS011;39954;48.844;9.726;2023-02-15T02:40:30;238.15;;;35.65;;
54037;SDS011;39954;48.844;9.726;2023-02-15T02:41:43;228.43;;;33.88;;
54037;SDS011;39954;48.844;9.726;2023-02-15T02:42:55;243.52;;;35.75;;
54037;SDS011;39954;48.844;9.726;2023-02-15T02:44:04;147.57;;;27.25;;
54037;SDS011;39954;48.844;9.726;2023-02-15T02:45:15;226.13;;;34.15;;
54037;SDS011;39954;48.844;9.726;2023-02-15T02:46:22;207.05;;;32.75;;
54037;SDS011;39954;48.844;9.726;2023-02-15T02:47:32;234.32;;;36.72;;
54037;SDS011;39954;48.844;9.726;2023-02-15T02:48:39;228.38;;;35.13;;
54037;SDS011;39954;48.844;9.726;2023-02-15T02:49:47;229.48;;;36.03;;
54037;SDS011;39954;48.844;9.726;2023-02-15T02:50:49;211.85;;;35.22;;
54037;SDS011;39954;48.844;9.726;2023-02-15T02:51:57;229.85;;;36.40;;
54037;SDS011;39954;48.844;9.726;2023-02-15T02:53:00;227.43;;;34.55;;
54037;SDS011;39954;48.844;9.726;2023-02-15T02:54:05;215.43;;;34.80;;
54037;SDS011;39954;48.844;9.726;2023-02-15T02:55:10;257.67;;;37.47;;
54037;SDS011;39954;48.844;9.726;2023-02-15T02:56:21;200.40;;;32.30;;
54037;SDS011;39954;48.844;9.726;2023-02-15T02:57:30;221.05;;;32.85;;
54037;SDS011;39954;48.844;9.726;2023-02-15T02:58:36;289.40;;;40.95;;
54037;SDS011;39954;48.844;9.726;2023-02-15T02:59:43;211.18;;;33.60;;
54037;SDS011;39954;48.844;9.726;2023-02-15T03:00:48;177.20;;;31.20;;
54037;SDS011;39954;48.844;9.726;2023-02-15T03:01:57;162.15;;;29.05;;
54037;SDS011;39954;48.844;9.726;2023-02-15T03:03:08;198.18;;;33.60;;
54037;SDS011;39954;48.844;9.726;2023-02-15T03:04:17;227.55;;;36.00;;
54037;SDS011;39954;48.844;9.726;2023-02-15T03:05:25;203.05;;;34.22;;
54037;SDS011;39954;48.844;9.726;2023-02-15T03:06:39;214.05;;;34.97;;
54037;SDS011;39954;48.844;9.726;2023-02-15T03:07:51;231.43;;;36.63;;
54037;SDS011;39954;48.844;9.726;2023-02-15T03:08:56;237.60;;;37.17;;
54037;SDS011;39954;48.844;9.726;2023-02-15T03:10:06;203.68;;;34.35;;
54037;SDS011;39954;48.844;9.726;2023-02-15T03:11:09;212.88;;;36.20;;
54037;SDS011;39954;48.844;9.726;2023-02-15T03:12:16;205.00;;;34.67;;
54037;SDS011;39954;48.844;9.726;2023-02-15T03:13:21;275.67;;;41.60;;
54037;SDS011;39954;48.844;9.726;2023-02-15T03:14:27;138.80;;;29.33;;
54037;SDS011;39954;48.844;9.726;2023-02-15T03:15:30;227.55;;;39.10;;
54037;SDS011;39954;48.844;9.726;2023-02-15T03:16:50;207.88;;;39.67;;
54037;SDS011;39954;48.844;9.726;2023-02-15T03:17:56;210.15;;;39.35;;
54037;SDS011;39954;48.844;9.726;2023-02-15T03:19:05;189.40;;;36.58;;
54037;SDS011;39954;48.844;9.726;2023-02-15T03:20:14;234.00;;;41.08;;
54037;SDS011;39954;48.844;9.726;2023-02-15T03:21:24;282.30;;;49.53;;
54037;SDS011;39954;48.844;9.726;2023-02-15T03:22:35;285.90;;;48.50;;
54037;SDS011;39954;48.844;9.726;2023-02-15T03:23:39;286.92;;;49.85;;
54037;SDS011;39954;48.844;9.726;2023-02-15T03:24:47;226.60;;;41.92;;
54037;SDS011;39954;48.844;9.726;2023-02-15T03:25:57;309.88;;;50.97;;
54037;SDS011;39954;48.844;9.726;2023-02-15T03:27:04;247.93;;;44.97;;
54037;SDS011;39954;48.844;9.726;2023-02-15T03:28:15;260.15;;;47.55;;
54037;SDS011;39954;48.844;9.726;2023-02-15T03:29:21;268.73;;;48.13;;
54037;SDS011;39954;48.844;9.726;2023-02-15T03:30:29;273.73;;;49.97;;
54037;SDS011;39954;48.844;9.726;2023-02-15T03:31:35;264.13;;;48.17;;
54037;SDS011;39954;48.844;9.726;2023-02-15T03:32:44;285.58;;;50.33;;
54037;SDS011;39954;48.844;9.726;2023-02-15T03:33:51;301.17;;;53.80;;
54037;SDS011;39954;48.844;9.726;2023-02-15T03:34:59;346.05;;;56.63;;
54037;SDS011;39954;48.844;9.726;2023-02-15T03:36:02;316.58;;;54.88;;
54037;SDS011;39954;48.844;9.726;2023-02-15T03:37:18;261.25;;;49.17;;
54037;SDS011;39954;48.844;9.726;2023-02-15T03:38:25;289.50;;;52.33;;
54037;SDS011;39954;48.844;9.726;2023-02-15T03:39:38;242.88;;;49.67;;
54037;SDS011;39954;48.844;9.726;2023-02-15T03:40:44;288.60;;;51.80;;
54037;SDS011;39954;48.844;9.726;2023-02-15T03:42:06;236.85;;;47.72;;
54037;SDS011;39954;48.844;9.726;2023-02-15T03:43:21;291.67;;;52.40;;
54037;SDS011;39954;48.844;9.726;2023-02-15T03:44:29;293.92;;;51.13;;
54037;SDS011;39954;48.844;9.726;2023-02-15T03:45:35;318.63;;;55.10;;
54037;SDS011;39954;48.844;9.726;2023-02-15T03:46:58;267.05;;;49.83;;
54037;SDS011;39954;48.844;9.726;2023-02-15T03:48:08;231.35;;;47.05;;
54037;SDS011;39954;48.844;9.726;2023-02-15T03:49:12;276.80;;;50.58;;
54037;SDS011;39954;48.844;9.726;2023-02-15T03:50:22;273.40;;;49.03;;
54037;SDS011;39954;48.844;9.726;2023-02-15T03:51:45;300.77;;;51.70;;
54037;SDS011;39954;48.844;9.726;2023-02-15T03:52:55;248.07;;;46.78;;
54037;SDS011;39954;48.844;9.726;2023-02-15T03:54:00;308.40;;;51.75;;
54037;SDS011;39954;48.844;9.726;2023-02-15T03:55:07;321.15;;;54.15;;
54037;SDS011;39954;48.844;9.726;2023-02-15T03:56:09;300.77;;;51.13;;
54037;SDS011;39954;48.844;9.726;2023-02-15T03:57:15;321.20;;;52.90;;
54037;SDS011;39954;48.844;9.726;2023-02-15T04:00:04;261.23;;;45.42;;
54037;SDS011;39954;48.844;9.726;2023-02-15T04:01:27;302.17;;;48.22;;
54037;SDS011;39954;48.844;9.726;2023-02-15T04:03:06;309.65;;;49.75;;
54037;SDS011;39954;48.844;9.726;2023-02-15T04:04:17;295.50;;;46.28;;
54037;SDS011;39954;48.844;9.726;2023-02-15T04:05:23;250.90;;;43.00;;
54037;SDS011;39954;48.844;9.726;2023-02-15T04:06:28;276.63;;;43.90;;
54037;SDS011;39954;48.844;9.726;2023-02-15T04:07:30;287.73;;;45.08;;
54037;SDS011;39954;48.844;9.726;2023-02-15T04:08:38;285.10;;;45.60;;
54037;SDS011;39954;48.844;9.726;2023-02-15T04:09:55;207.82;;;37.25;;
54037;SDS011;39954;48.844;9.726;2023-02-15T04:11:12;286.05;;;46.03;;
54037;SDS011;39954;48.844;9.726;2023-02-15T04:12:17;223.93;;;40.42;;
54037;SDS011;39954;48.844;9.726;2023-02-15T04:13:19;281.23;;;46.22;;
54037;SDS011;39954;48.844;9.726;2023-02-15T04:14:25;306.30;;;48.78;;
54037;SDS011;39954;48.844;9.726;2023-02-15T04:15:42;291.30;;;45.72;;
54037;SDS011;39954;48.844;9.726;2023-02-15T04:17:00;253.20;;;41.83;;
54037;SDS011;39954;48.844;9.726;2023-02-15T04:18:02;227.25;;;40.33;;
54037;SDS011;39954;48.844;9.726;2023-02-15T04:19:07;283.25;;;45.28;;
54037;SDS011;39954;48.844;9.726;2023-02-15T04:20:24;221.30;;;38.60;;
54037;SDS011;39954;48.844;9.726;2023-02-15T04:21:41;278.90;;;43.10;;
54037;SDS011;39954;48.844;9.726;2023-02-15T04:22:58;267.20;;;41.60;;
54037;SDS011;39954;48.844;9.726;2023-02-15T04:24:18;274.83;;;41.30;;
54037;SDS011;39954;48.844;9.726;2023-02-15T04:25:36;279.35;;;43.20;;
54037;SDS011;39954;48.844;9.726;2023-02-15T04:26:40;290.65;;;44.45;;
54037;SDS011;39954;48.844;9.726;2023-02-15T04:27:43;292.48;;;44.28;;
54037;SDS011;39954;48.844;9.726;2023-02-15T04:28:49;297.58;;;45.05;;
54037;SDS011;39954;48.844;9.726;2023-02-15T04:29:51;248.35;;;39.95;;
54037;SDS011;39954;48.844;9.726;2023-02-15T04:30:56;256.40;;;39.50;;
54037;SDS011;39954;48.844;9.726;2023-02-15T04:31:58;225.48;;;37.50;;
54037;SDS011;39954;48.844;9.726;2023-02-15T04:33:05;265.00;;;40.88;;
54037;SDS011;39954;48.844;9.726;2023-02-15T04:34:07;258.20;;;39.10;;
54037;SDS011;39954;48.844;9.726;2023-02-15T04:35:11;243.43;;;39.72;;
54037;SDS011;39954;48.844;9.726;2023-02-15T04:36:14;252.93;;;40.28;;
54037;SDS011;39954;48.844;9.726;2023-02-15T04:37:19;237.52;;;38.17;;
54037;SDS011;39954;48.844;9.726;2023-02-15T04:38:23;257.98;;;41.40;;
54037;SDS011;39954;48.844;9.726;2023-02-15T04:39:28;254.50;;;40.80;;
54037;SDS011;39954;48.844;9.726;2023-02-15T04:40:33;235.32;;;38.53;;
54037;SDS011;39954;48.844;9.726;2023-02-15T04:41:38;252.63;;;40.88;;
54037;SDS011;39954;48.844;9.726;2023-02-15T04:42:40;247.90;;;39.50;;
54037;SDS011;39954;48.844;9.726;2023-02-15T04:43:44;297.02;;;43.90;;
54037;SDS011;39954;48.844;9.726;2023-02-15T04:44:46;268.17;;;41.20;;
54037;SDS011;39954;48.844;9.726;2023-02-15T04:45:51;210.80;;;35.88;;
54037;SDS011;39954;48.844;9.726;2023-02-15T04:46:53;252.00;;;38.97;;
54037;SDS011;39954;48.844;9.726;2023-02-15T04:47:58;285.88;;;42.58;;
54037;SDS011;39954;48.844;9.726;2023-02-15T04:49:00;260.60;;;40.30;;
54037;SDS011;39954;48.844;9.726;2023-02-15T04:50:05;234.93;;;40.38;;
54037;SDS011;39954;48.844;9.726;2023-02-15T04:51:08;235.02;;;41.55;;
54037;SDS011;39954;48.844;9.726;2023-02-15T04:52:13;212.30;;;37.70;;
54037;SDS011;39954;48.844;9.726;2023-02-15T04:53:15;235.82;;;40.90;;
54037;SDS011;39954;48.844;9.726;2023-02-15T04:54:19;247.05;;;42.08;;
54037;SDS011;39954;48.844;9.726;2023-02-15T04:55:24;217.30;;;38.50;;
54037;SDS011;39954;48.844;9.726;2023-02-15T04:56:29;219.60;;;38.15;;
54037;SDS011;39954;48.844;9.726;2023-02-15T04:57:31;171.75;;;33.30;;
54037;SDS011;39954;48.844;9.726;2023-02-15T04:58:36;221.57;;;38.60;;
54037;SDS011;39954;48.844;9.726;2023-02-15T04:59:38;237.80;;;40.33;;
54037;SDS011;39954;48.844;9.726;2023-02-15T05:00:43;242.05;;;41.45;;
54037;SDS011;39954;48.844;9.726;2023-02-15T05:01:45;228.65;;;38.90;;
54037;SDS011;39954;48.844;9.726;2023-02-15T05:02:49;229.40;;;40.30;;
54037;SDS011;39954;48.844;9.726;2023-02-15T05:03:54;184.10;;;34.95;;
54037;SDS011;39954;48.844;9.726;2023-02-15T05:04:56;187.68;;;37.20;;
54037;SDS011;39954;48.844;9.726;2023-02-15T05:06:01;82.65;;;31.02;;
54037;SDS011;39954;48.844;9.726;2023-02-15T05:07:03;73.38;;;28.88;;
54037;SDS011;39954;48.844;9.726;2023-02-15T05:08:08;74.68;;;27.20;;
54037;SDS011;39954;48.844;9.726;2023-02-15T05:09:10;71.38;;;28.05;;
54037;SDS011;39954;48.844;9.726;2023-02-15T05:10:15;71.32;;;27.08;;
54037;SDS011;39954;48.844;9.726;2023-02-15T05:11:20;75.13;;;29.15;;
54037;SDS011;39954;48.844;9.726;2023-02-15T05:12:24;79.00;;;28.33;;
54037;SDS011;39954;48.844;9.726;2023-02-15T05:13:29;70.85;;;26.30;;
54037;SDS011;39954;48.844;9.726;2023-02-15T05:14:31;76.13;;;27.08;;
54037;SDS011;39954;48.844;9.726;2023-02-15T05:15:36;76.30;;;28.65;;
54037;SDS011;39954;48.844;9.726;2023-02-15T05:16:38;72.13;;;28.30;;
54037;SDS011;39954;48.844;9.726;2023-02-15T05:17:43;74.38;;;27.85;;
54037;SDS011;39954;48.844;9.726;2023-02-15T05:18:47;76.28;;;27.65;;
54037;SDS011;39954;48.844;9.726;2023-02-15T05:19:49;70.90;;;27.00;;
54037;SDS011;39954;48.844;9.726;2023-02-15T05:20:54;64.45;;;25.95;;
54037;SDS011;39954;48.844;9.726;2023-02-15T05:21:56;75.20;;;27.60;;
54037;SDS011;39954;48.844;9.726;2023-02-15T05:23:01;73.07;;;26.70;;
54037;SDS011;39954;48.844;9.726;2023-02-15T05:24:03;66.30;;;25.58;;
54037;SDS011;39954;48.844;9.726;2023-02-15T05:25:28;70.97;;;25.83;;
54037;SDS011;39954;48.844;9.726;2023-02-15T05:26:48;64.47;;;24.80;;
54037;SDS011;39954;48.844;9.726;2023-02-15T05:28:07;68.22;;;26.13;;
54037;SDS011;39954;48.844;9.726;2023-02-15T05:29:21;73.65;;;26.35;;
54037;SDS011;39954;48.844;9.726;2023-02-15T05:30:26;79.72;;;26.50;;
54037;SDS011;39954;48.844;9.726;2023-02-15T05:31:28;77.43;;;27.88;;
54037;SDS011;39954;48.844;9.726;2023-02-15T05:32:35;77.20;;;27.52;;
54037;SDS011;39954;48.844;9.726;2023-02-15T05:33:37;81.20;;;28.40;;
54037;SDS011;39954;48.844;9.726;2023-02-15T05:34:42;89.38;;;30.95;;
54037;SDS011;39954;48.844;9.726;2023-02-15T05:35:45;91.70;;;31.13;;
54037;SDS011;39954;48.844;9.726;2023-02-15T05:36:49;102.50;;;33.05;;
54037;SDS011;39954;48.844;9.726;2023-02-15T05:37:51;102.05;;;33.00;;
54037;SDS011;39954;48.844;9.726;2023-02-15T05:38:56;96.30;;;31.65;;
54037;SDS011;39954;48.844;9.726;2023-02-15T05:39:58;102.43;;;32.33;;
54037;SDS011;39954;48.844;9.726;2023-02-15T05:41:03;95.57;;;31.27;;
54037;SDS011;39954;48.844;9.726;2023-02-15T05:42:08;90.55;;;30.13;;
54037;SDS011;39954;48.844;9.726;2023-02-15T05:43:13;87.82;;;30.63;;
54037;SDS011;39954;48.844;9.726;2023-02-15T05:44:15;93.35;;;31.25;;
54037;SDS011;39954;48.844;9.726;2023-02-15T05:45:19;95.97;;;31.52;;
54037;SDS011;39954;48.844;9.726;2023-02-15T05:46:21;94.85;;;32.50;;
54037;SDS011;39954;48.844;9.726;2023-02-15T05:47:26;88.18;;;30.42;;
54037;SDS011;39954;48.844;9.726;2023-02-15T05:48:29;96.03;;;30.58;;
54037;SDS011;39954;48.844;9.726;2023-02-15T05:49:34;83.28;;;29.10;;
54037;SDS011;39954;48.844;9.726;2023-02-15T05:50:36;97.03;;;33.17;;
54037;SDS011;39954;48.844;9.726;2023-02-15T05:51:40;92.28;;;32.40;;
54037;SDS011;39954;48.844;9.726;2023-02-15T05:52:43;96.75;;;33.15;;
54037;SDS011;39954;48.844;9.726;2023-02-15T05:53:47;91.00;;;30.55;;
54037;SDS011;39954;48.844;9.726;2023-02-15T05:54:49;99.22;;;32.17;;
54037;SDS011;39954;48.844;9.726;2023-02-15T05:55:55;89.85;;;31.30;;
54037;SDS011;39954;48.844;9.726;2023-02-15T05:57:01;91.75;;;29.75;;
54037;SDS011;39954;48.844;9.726;2023-02-15T05:58:08;79.43;;;29.05;;
54037;SDS011;39954;48.844;9.726;2023-02-15T05:59:11;89.43;;;30.33;;
54037;SDS011;39954;48.844;9.726;2023-02-15T06:00:16;86.88;;;29.52;;
54037;SDS011;39954;48.844;9.726;2023-02-15T06:01:18;83.35;;;28.80;;
54037;SDS011;39954;48.844;9.726;2023-02-15T06:02:24;84.75;;;29.08;;
54037;SDS011;39954;48.844;9.726;2023-02-15T06:03:26;80.28;;;28.83;;
54037;SDS011;39954;48.844;9.726;2023-02-15T06:04:31;83.45;;;28.42;;
54037;SDS011;39954;48.844;9.726;2023-02-15T06:05:33;75.22;;;27.20;;
54037;SDS011;39954;48.844;9.726;2023-02-15T06:06:38;70.88;;;25.30;;
54037;SDS011;39954;48.844;9.726;2023-02-15T06:07:42;68.10;;;25.52;;
54037;SDS011;39954;48.844;9.726;2023-02-15T06:08:47;72.35;;;25.42;;
54037;SDS011;39954;48.844;9.726;2023-02-15T06:09:49;96.75;;;32.15;;
54037;SDS011;39954;48.844;9.726;2023-02-15T06:10:54;106.22;;;34.45;;
54037;SDS011;39954;48.844;9.726;2023-02-15T06:11:56;108.68;;;35.90;;
54037;SDS011;39954;48.844;9.726;2023-02-15T06:13:01;114.13;;;37.33;;
54037;SDS011;39954;48.844;9.726;2023-02-15T06:14:06;116.30;;;36.33;;
54037;SDS011;39954;48.844;9.726;2023-02-15T06:15:10;116.38;;;37.28;;
54037;SDS011;39954;48.844;9.726;2023-02-15T06:16:12;124.60;;;38.03;;
54037;SDS011;39954;48.844;9.726;2023-02-15T06:17:17;128.07;;;39.67;;
54037;SDS011;39954;48.844;9.726;2023-02-15T06:18:19;140.45;;;40.38;;
54037;SDS011;39954;48.844;9.726;2023-02-15T06:19:24;146.18;;;41.88;;
54037;SDS011;39954;48.844;9.726;2023-02-15T06:20:26;141.77;;;42.50;;
54037;SDS011;39954;48.844;9.726;2023-02-15T06:21:30;135.05;;;42.47;;
54037;SDS011;39954;48.844;9.726;2023-02-15T06:22:35;139.43;;;42.15;;
54037;SDS011;39954;48.844;9.726;2023-02-15T06:23:37;127.88;;;40.58;;
54037;SDS011;39954;48.844;9.726;2023-02-15T06:24:42;137.20;;;42.60;;
54037;SDS011;39954;48.844;9.726;2023-02-15T06:25:45;146.63;;;43.38;;
54037;SDS011;39954;48.844;9.726;2023-02-15T06:26:50;138.10;;;42.30;;
54037;SDS011;39954;48.844;9.726;2023-02-15T06:27:52;141.48;;;41.38;;
54037;SDS011;39954;48.844;9.726;2023-02-15T06:28:57;145.77;;;42.85;;
54037;SDS011;39954;48.844;9.726;2023-02-15T06:30:05;134.02;;;41.15;;
54037;SDS011;39954;48.844;9.726;2023-02-15T06:31:11;131.82;;;40.55;;
54037;SDS011;39954;48.844;9.726;2023-02-15T06:32:14;134.93;;;40.80;;